Aviation Digital Data Service (ADDS)

Output produced by METARs form (0920 UTC 23 July 2019)
found at http://www.aviationweather.gov/metar/data/
 
METAR text: LTBA 230850Z 07013KT 030V090 CAVOK 30/14 Q1013 NOSIG RMK RWY17L 03012KT 350V060 RWY05 05012KT RWY23 06013KT 030V100
Conditions at: LTBA (ISTANBUL/ATATURK, TR) observed 0850 UTC 23 July 2019
Temperature: 30.0°C (86°F)
Dewpoint: 14.0°C (57°F) [RH = 38%]
Pressure (altimeter): 29.91 inches Hg (1013.0 mb)
Winds: from the ENE (70 degrees) at 15 MPH (13 knots; 6.7 m/s)
Visibility: 6 or more miles (10+ km)
Ceiling: ceiling and visibility are OK
Clouds: unknown
Weather: no significant weather observed at this time

METAR text: LTBA 230820Z 07010KT 040V100 CAVOK 31/15 Q1013 NOSIG RMK RWY17L 01010KT 340V060 RWY05 05011KT RWY23 06014KT
Conditions at: LTBA (ISTANBUL/ATATURK, TR) observed 0820 UTC 23 July 2019
Temperature: 31.0°C (88°F)
Dewpoint: 15.0°C (59°F) [RH = 38%]
Pressure (altimeter): 29.91 inches Hg (1013.0 mb)
Winds: from the ENE (70 degrees) at 12 MPH (10 knots; 5.1 m/s)
Visibility: 6 or more miles (10+ km)
Ceiling: ceiling and visibility are OK
Clouds: unknown
Weather: no significant weather observed at this time

METAR text: LTBA 230750Z 03010KT 360V060 CAVOK 30/17 Q1014 NOSIG RMK RWY17L 01011KT 340V060 RWY05 01010KT 350V050 RWY23 05010KT 360V080
Conditions at: LTBA (ISTANBUL/ATATURK, TR) observed 0750 UTC 23 July 2019
Temperature: 30.0°C (86°F)
Dewpoint: 17.0°C (63°F) [RH = 46%]
Pressure (altimeter): 29.94 inches Hg (1014.0 mb)
Winds: from the NNE (30 degrees) at 12 MPH (10 knots; 5.1 m/s)
Visibility: 6 or more miles (10+ km)
Ceiling: ceiling and visibility are OK
Clouds: unknown
Weather: no significant weather observed at this time

METAR text: LTBA 230720Z 07009KT CAVOK 29/18 Q1013 NOSIG RMK RWY17L 05008KT 360V090 RWY05 02008KT 350V050 RWY23 05010KT 010V070
Conditions at: LTBA (ISTANBUL/ATATURK, TR) observed 0720 UTC 23 July 2019
Temperature: 29.0°C (84°F)
Dewpoint: 18.0°C (64°F) [RH = 52%]
Pressure (altimeter): 29.91 inches Hg (1013.0 mb)
Winds: from the ENE (70 degrees) at 10 MPH (9 knots; 4.6 m/s)
Visibility: 6 or more miles (10+ km)
Ceiling: ceiling and visibility are OK
Clouds: unknown
Weather: no significant weather observed at this time

METAR text: LTBA 230650Z 03008KT 010V090 CAVOK 28/19 Q1014 NOSIG RMK RWY17L 02008KT 360V070 RWY05 04007KT 360V080 RWY23 05009KT 020V080
Conditions at: LTBA (ISTANBUL/ATATURK, TR) observed 0650 UTC 23 July 2019
Temperature: 28.0°C (82°F)
Dewpoint: 19.0°C (66°F) [RH = 58%]
Pressure (altimeter): 29.94 inches Hg (1014.0 mb)
Winds: from the NNE (30 degrees) at 9 MPH (8 knots; 4.1 m/s)
Visibility: 6 or more miles (10+ km)
Ceiling: ceiling and visibility are OK
Clouds: unknown
Weather: no significant weather observed at this time

METAR text: LTBA 230620Z 05007KT 360V100 CAVOK 27/20 Q1014 NOSIG RMK RWY17L 04008KT 010V070 RWY05 02008KT 340V060 RWY23 06010KT
Conditions at: LTBA (ISTANBUL/ATATURK, TR) observed 0620 UTC 23 July 2019
Temperature: 27.0°C (81°F)
Dewpoint: 20.0°C (68°F) [RH = 66%]
Pressure (altimeter): 29.94 inches Hg (1014.0 mb)
Winds: from the NE (50 degrees) at 8 MPH (7 knots; 3.6 m/s)
Visibility: 6 or more miles (10+ km)
Ceiling: ceiling and visibility are OK
Clouds: unknown
Weather: no significant weather observed at this time

METAR text: LTBA 230550Z 03010KT 360V070 CAVOK 26/20 Q1014 NOSIG RMK RWY17L 03009KT 360V070 RWY05 02012KT RWY23 04011KT 360V150
Conditions at: LTBA (ISTANBUL/ATATURK, TR) observed 0550 UTC 23 July 2019
Temperature: 26.0°C (79°F)
Dewpoint: 20.0°C (68°F) [RH = 70%]
Pressure (altimeter): 29.94 inches Hg (1014.0 mb)
Winds: from the NNE (30 degrees) at 12 MPH (10 knots; 5.1 m/s)
Visibility: 6 or more miles (10+ km)
Ceiling: ceiling and visibility are OK
Clouds: unknown
Weather: no significant weather observed at this time

METAR text: LTBA 230520Z 04009KT 360V060 CAVOK 26/20 Q1014 NOSIG RMK RWY17L 03009KT 350V060 RWY05 03010KT RWY23 04011KT 010V080
Conditions at: LTBA (ISTANBUL/ATATURK, TR) observed 0520 UTC 23 July 2019
Temperature: 26.0°C (79°F)
Dewpoint: 20.0°C (68°F) [RH = 70%]
Pressure (altimeter): 29.94 inches Hg (1014.0 mb)
Winds: from the NE (40 degrees) at 10 MPH (9 knots; 4.6 m/s)
Visibility: 6 or more miles (10+ km)
Ceiling: ceiling and visibility are OK
Clouds: unknown
Weather: no significant weather observed at this time

METAR text: LTBA 230450Z 02009KT 360V070 CAVOK 25/21 Q1014 NOSIG RMK RWY17L 02008KT 350V050 RWY05 02010KT 350V050 RWY23 04009KT
Conditions at: LTBA (ISTANBUL/ATATURK, TR) observed 0450 UTC 23 July 2019
Temperature: 25.0°C (77°F)
Dewpoint: 21.0°C (70°F) [RH = 79%]
Pressure (altimeter): 29.94 inches Hg (1014.0 mb)
Winds: from the NNE (20 degrees) at 10 MPH (9 knots; 4.6 m/s)
Visibility: 6 or more miles (10+ km)
Ceiling: ceiling and visibility are OK
Clouds: unknown
Weather: no significant weather observed at this time

METAR text: LTBA 230420Z 03007KT CAVOK 24/21 Q1014 NOSIG RMK RWY17L VRB02KT RWY05 01007KT RWY23 04008KT 340V090
Conditions at: LTBA (ISTANBUL/ATATURK, TR) observed 0420 UTC 23 July 2019
Temperature: 24.0°C (75°F)
Dewpoint: 21.0°C (70°F) [RH = 83%]
Pressure (altimeter): 29.94 inches Hg (1014.0 mb)
Winds: from the NNE (30 degrees) at 8 MPH (7 knots; 3.6 m/s)
Visibility: 6 or more miles (10+ km)
Ceiling: ceiling and visibility are OK
Clouds: unknown
Weather: no significant weather observed at this time

METAR text: LTBA 230350Z 01006KT CAVOK 24/21 Q1014 NOSIG RMK RWY17L 02007KT RWY05 01005KT 330V060 RWY23 05005KT 010V070
Conditions at: LTBA (ISTANBUL/ATATURK, TR) observed 0350 UTC 23 July 2019
Temperature: 24.0°C (75°F)
Dewpoint: 21.0°C (70°F) [RH = 83%]
Pressure (altimeter): 29.94 inches Hg (1014.0 mb)
Winds: from the N (10 degrees) at 7 MPH (6 knots; 3.1 m/s)
Visibility: 6 or more miles (10+ km)
Ceiling: ceiling and visibility are OK
Clouds: unknown
Weather: no significant weather observed at this time

METAR text: LTBA 230320Z 04006KT CAVOK 23/21 Q1014 NOSIG RMK RWY17L 02006KT RWY05 04005KT RWY23 08004KT
Conditions at: LTBA (ISTANBUL/ATATURK, TR) observed 0320 UTC 23 July 2019
Temperature: 23.0°C (73°F)
Dewpoint: 21.0°C (70°F) [RH = 89%]
Pressure (altimeter): 29.94 inches Hg (1014.0 mb)
Winds: from the NE (40 degrees) at 7 MPH (6 knots; 3.1 m/s)
Visibility: 6 or more miles (10+ km)
Ceiling: ceiling and visibility are OK
Clouds: unknown
Weather: no significant weather observed at this time

METAR text: LTBA 230250Z 01006KT CAVOK 23/21 Q1014 NOSIG RMK RWY17L 01005KT 340V040 RWY05 36005KT RWY23 02004KT
Conditions at: LTBA (ISTANBUL/ATATURK, TR) observed 0250 UTC 23 July 2019
Temperature: 23.0°C (73°F)
Dewpoint: 21.0°C (70°F) [RH = 89%]
Pressure (altimeter): 29.94 inches Hg (1014.0 mb)
Winds: from the N (10 degrees) at 7 MPH (6 knots; 3.1 m/s)
Visibility: 6 or more miles (10+ km)
Ceiling: ceiling and visibility are OK
Clouds: unknown
Weather: no significant weather observed at this time

METAR text: LTBA 230220Z 02006KT 340V040 CAVOK 23/21 Q1014 NOSIG RMK RWY17L 01005KT 340V040 RWY05 36005KT RWY23 03005KT 350V050
Conditions at: LTBA (ISTANBUL/ATATURK, TR) observed 0220 UTC 23 July 2019
Temperature: 23.0°C (73°F)
Dewpoint: 21.0°C (70°F) [RH = 89%]
Pressure (altimeter): 29.94 inches Hg (1014.0 mb)
Winds: from the NNE (20 degrees) at 7 MPH (6 knots; 3.1 m/s)
Visibility: 6 or more miles (10+ km)
Ceiling: ceiling and visibility are OK
Clouds: unknown
Weather: no significant weather observed at this time

METAR text: LTBA 230150Z VRB05KT CAVOK 23/21 Q1014 NOSIG RMK RWY17L 35006KT RWY05 01004KT 330V040 RWY23 03004KT 350V060
Conditions at: LTBA (ISTANBUL/ATATURK, TR) observed 0150 UTC 23 July 2019
Temperature: 23.0°C (73°F)
Dewpoint: 21.0°C (70°F) [RH = 89%]
Pressure (altimeter): 29.94 inches Hg (1014.0 mb)
Winds: variable direction winds at 6 MPH (5 knots; 2.6 m/s)
Visibility: 6 or more miles (10+ km)
Ceiling: ceiling and visibility are OK
Clouds: unknown
Weather: no significant weather observed at this time

METAR text: LTBA 230120Z 05004KT 020V090 CAVOK 23/20 Q1014 NOSIG RMK RWY17L 04005KT 350V080 RWY05 00000KT RWY23 VRB02KT
Conditions at: LTBA (ISTANBUL/ATATURK, TR) observed 0120 UTC 23 July 2019
Temperature: 23.0°C (73°F)
Dewpoint: 20.0°C (68°F) [RH = 83%]
Pressure (altimeter): 29.94 inches Hg (1014.0 mb)
Winds: from the NE (50 degrees) at 5 MPH (4 knots; 2.1 m/s)
Visibility: 6 or more miles (10+ km)
Ceiling: ceiling and visibility are OK
Clouds: unknown
Weather: no significant weather observed at this time

METAR text: LTBA 230050Z 01004KT 310V050 CAVOK 23/19 Q1014 NOSIG RMK RWY17L 02005KT 350V050 RWY05 03002KT RWY23 05003KT
Conditions at: LTBA (ISTANBUL/ATATURK, TR) observed 0050 UTC 23 July 2019
Temperature: 23.0°C (73°F)
Dewpoint: 19.0°C (66°F) [RH = 78%]
Pressure (altimeter): 29.94 inches Hg (1014.0 mb)
Winds: from the N (10 degrees) at 5 MPH (4 knots; 2.1 m/s)
Visibility: 6 or more miles (10+ km)
Ceiling: ceiling and visibility are OK
Clouds: unknown
Weather: no significant weather observed at this time

METAR text: LTBA 230020Z VRB04KT CAVOK 24/20 Q1014 NOSIG RMK RWY17L 03006KT RWY05 VRB01KT RWY23 06005KT
Conditions at: LTBA (ISTANBUL/ATATURK, TR) observed 0020 UTC 23 July 2019
Temperature: 24.0°C (75°F)
Dewpoint: 20.0°C (68°F) [RH = 78%]
Pressure (altimeter): 29.94 inches Hg (1014.0 mb)
Winds: variable direction winds at 5 MPH (4 knots; 2.1 m/s)
Visibility: 6 or more miles (10+ km)
Ceiling: ceiling and visibility are OK
Clouds: unknown
Weather: no significant weather observed at this time

METAR text: LTBA 222350Z 04004KT 360V070 CAVOK 24/19 Q1014 NOSIG RMK RWY17L 03007KT 360V070 RWY05 05004KT RWY23 06006KT
Conditions at: LTBA (ISTANBUL/ATATURK, TR) observed 2350 UTC 22 July 2019
Temperature: 24.0°C (75°F)
Dewpoint: 19.0°C (66°F) [RH = 74%]
Pressure (altimeter): 29.94 inches Hg (1014.0 mb)
Winds: from the NE (40 degrees) at 5 MPH (4 knots; 2.1 m/s)
Visibility: 6 or more miles (10+ km)
Ceiling: ceiling and visibility are OK
Clouds: unknown
Weather: no significant weather observed at this time

METAR text: LTBA 222320Z 05005KT 020V090 CAVOK 24/19 Q1015 NOSIG RMK RWY17L 03007KT RWY05 08004KT RWY23 06008KT
Conditions at: LTBA (ISTANBUL/ATATURK, TR) observed 2320 UTC 22 July 2019
Temperature: 24.0°C (75°F)
Dewpoint: 19.0°C (66°F) [RH = 74%]
Pressure (altimeter): 29.97 inches Hg (1015.0 mb)
Winds: from the NE (50 degrees) at 6 MPH (5 knots; 2.6 m/s)
Visibility: 6 or more miles (10+ km)
Ceiling: ceiling and visibility are OK
Clouds: unknown
Weather: no significant weather observed at this time

METAR text: LTBA 222250Z 04006KT 010V070 CAVOK 24/19 Q1015 NOSIG RMK RWY17L 04007KT RWY05 04006KT RWY23 05008KT
Conditions at: LTBA (ISTANBUL/ATATURK, TR) observed 2250 UTC 22 July 2019
Temperature: 24.0°C (75°F)
Dewpoint: 19.0°C (66°F) [RH = 74%]
Pressure (altimeter): 29.97 inches Hg (1015.0 mb)
Winds: from the NE (40 degrees) at 7 MPH (6 knots; 3.1 m/s)
Visibility: 6 or more miles (10+ km)
Ceiling: ceiling and visibility are OK
Clouds: unknown
Weather: no significant weather observed at this time

METAR text: LTBA 222220Z 03009KT CAVOK 24/18 Q1015 NOSIG RMK RWY17L 04007KT RWY05 02009KT RWY23 05009KT
Conditions at: LTBA (ISTANBUL/ATATURK, TR) observed 2220 UTC 22 July 2019
Temperature: 24.0°C (75°F)
Dewpoint: 18.0°C (64°F) [RH = 69%]
Pressure (altimeter): 29.97 inches Hg (1015.0 mb)
Winds: from the NNE (30 degrees) at 10 MPH (9 knots; 4.6 m/s)
Visibility: 6 or more miles (10+ km)
Ceiling: ceiling and visibility are OK
Clouds: unknown
Weather: no significant weather observed at this time

METAR text: LTBA 222150Z 03008KT CAVOK 24/18 Q1015 NOSIG RMK RWY17L 03007KT RWY05 02010KT RWY23 04009KT
Conditions at: LTBA (ISTANBUL/ATATURK, TR) observed 2150 UTC 22 July 2019
Temperature: 24.0°C (75°F)
Dewpoint: 18.0°C (64°F) [RH = 69%]
Pressure (altimeter): 29.97 inches Hg (1015.0 mb)
Winds: from the NNE (30 degrees) at 9 MPH (8 knots; 4.1 m/s)
Visibility: 6 or more miles (10+ km)
Ceiling: ceiling and visibility are OK
Clouds: unknown
Weather: no significant weather observed at this time

METAR text: LTBA 222120Z 04009KT CAVOK 25/18 Q1015 NOSIG RMK RWY17L 03007KT 360V070 RWY05 03011KT RWY23 05010KT
Conditions at: LTBA (ISTANBUL/ATATURK, TR) observed 2120 UTC 22 July 2019
Temperature: 25.0°C (77°F)
Dewpoint: 18.0°C (64°F) [RH = 65%]
Pressure (altimeter): 29.97 inches Hg (1015.0 mb)
Winds: from the NE (40 degrees) at 10 MPH (9 knots; 4.6 m/s)
Visibility: 6 or more miles (10+ km)
Ceiling: ceiling and visibility are OK
Clouds: unknown
Weather: no significant weather observed at this time

METAR text: LTBA 222050Z 03010KT CAVOK 25/18 Q1015 NOSIG RMK RWY17L 04008KT RWY05 02011KT RWY23 04011KT
Conditions at: LTBA (ISTANBUL/ATATURK, TR) observed 2050 UTC 22 July 2019
Temperature: 25.0°C (77°F)
Dewpoint: 18.0°C (64°F) [RH = 65%]
Pressure (altimeter): 29.97 inches Hg (1015.0 mb)
Winds: from the NNE (30 degrees) at 12 MPH (10 knots; 5.1 m/s)
Visibility: 6 or more miles (10+ km)
Ceiling: ceiling and visibility are OK
Clouds: unknown
Weather: no significant weather observed at this time

METAR text: LTBA 222020Z 04010KT CAVOK 25/17 Q1015 NOSIG RMK RWY17L 04011KT 020V080 RWY05 03013KT RWY23 05011KT
Conditions at: LTBA (ISTANBUL/ATATURK, TR) observed 2020 UTC 22 July 2019
Temperature: 25.0°C (77°F)
Dewpoint: 17.0°C (63°F) [RH = 61%]
Pressure (altimeter): 29.97 inches Hg (1015.0 mb)
Winds: from the NE (40 degrees) at 12 MPH (10 knots; 5.1 m/s)
Visibility: 6 or more miles (10+ km)
Ceiling: ceiling and visibility are OK
Clouds: unknown
Weather: no significant weather observed at this time

METAR text: LTBA 221950Z 04011KT 360V060 CAVOK 25/18 Q1016 NOSIG RMK RWY17L 04011KT RWY05 03014KT RWY23 05013KT
Conditions at: LTBA (ISTANBUL/ATATURK, TR) observed 1950 UTC 22 July 2019
Temperature: 25.0°C (77°F)
Dewpoint: 18.0°C (64°F) [RH = 65%]
Pressure (altimeter): 30.00 inches Hg (1016.0 mb)
Winds: from the NE (40 degrees) at 13 MPH (11 knots; 5.7 m/s)
Visibility: 6 or more miles (10+ km)
Ceiling: ceiling and visibility are OK
Clouds: unknown
Weather: no significant weather observed at this time

METAR text: LTBA 221920Z 05012KT CAVOK 25/18 Q1016 NOSIG RMK RWY17L 05011KT RWY05 03012KT RWY23 06012KT
Conditions at: LTBA (ISTANBUL/ATATURK, TR) observed 1920 UTC 22 July 2019
Temperature: 25.0°C (77°F)
Dewpoint: 18.0°C (64°F) [RH = 65%]
Pressure (altimeter): 30.00 inches Hg (1016.0 mb)
Winds: from the NE (50 degrees) at 14 MPH (12 knots; 6.2 m/s)
Visibility: 6 or more miles (10+ km)
Ceiling: ceiling and visibility are OK
Clouds: unknown
Weather: no significant weather observed at this time

METAR text: LTBA 221850Z 04011KT CAVOK 25/19 Q1016 NOSIG RMK RWY17L 03011KT RWY05 02012KT RWY23 05012KT
Conditions at: LTBA (ISTANBUL/ATATURK, TR) observed 1850 UTC 22 July 2019
Temperature: 25.0°C (77°F)
Dewpoint: 19.0°C (66°F) [RH = 69%]
Pressure (altimeter): 30.00 inches Hg (1016.0 mb)
Winds: from the NE (40 degrees) at 13 MPH (11 knots; 5.7 m/s)
Visibility: 6 or more miles (10+ km)
Ceiling: ceiling and visibility are OK
Clouds: unknown
Weather: no significant weather observed at this time

METAR text: LTBA 221820Z 03010KT CAVOK 26/18 Q1016 NOSIG RMK RWY17L 03011KT 350V060 RWY05 02013KT RWY23 04011KT
Conditions at: LTBA (ISTANBUL/ATATURK, TR) observed 1820 UTC 22 July 2019
Temperature: 26.0°C (79°F)
Dewpoint: 18.0°C (64°F) [RH = 61%]
Pressure (altimeter): 30.00 inches Hg (1016.0 mb)
Winds: from the NNE (30 degrees) at 12 MPH (10 knots; 5.1 m/s)
Visibility: 6 or more miles (10+ km)
Ceiling: ceiling and visibility are OK
Clouds: unknown
Weather: no significant weather observed at this time

METAR text: LTBA 221750Z 03012KT CAVOK 26/17 Q1016 NOSIG RMK RWY17L 03012KT 010V070 RWY05 01013KT RWY23 04009KT
Conditions at: LTBA (ISTANBUL/ATATURK, TR) observed 1750 UTC 22 July 2019
Temperature: 26.0°C (79°F)
Dewpoint: 17.0°C (63°F) [RH = 58%]
Pressure (altimeter): 30.00 inches Hg (1016.0 mb)
Winds: from the NNE (30 degrees) at 14 MPH (12 knots; 6.2 m/s)
Visibility: 6 or more miles (10+ km)
Ceiling: ceiling and visibility are OK
Clouds: unknown
Weather: no significant weather observed at this time

METAR text: LTBA 221720Z 03011KT CAVOK 27/16 Q1016 NOSIG RMK RWY17L 03010KT RWY05 03012KT RWY23 05012KT
Conditions at: LTBA (ISTANBUL/ATATURK, TR) observed 1720 UTC 22 July 2019
Temperature: 27.0°C (81°F)
Dewpoint: 16.0°C (61°F) [RH = 51%]
Pressure (altimeter): 30.00 inches Hg (1016.0 mb)
Winds: from the NNE (30 degrees) at 13 MPH (11 knots; 5.7 m/s)
Visibility: 6 or more miles (10+ km)
Ceiling: ceiling and visibility are OK
Clouds: unknown
Weather: no significant weather observed at this time

METAR text: LTBA 221650Z 04011KT CAVOK 28/14 Q1016 NOSIG RMK RWY17L 03011KT RWY05 03011KT RWY23 06013KT
Conditions at: LTBA (ISTANBUL/ATATURK, TR) observed 1650 UTC 22 July 2019
Temperature: 28.0°C (82°F)
Dewpoint: 14.0°C (57°F) [RH = 42%]
Pressure (altimeter): 30.00 inches Hg (1016.0 mb)
Winds: from the NE (40 degrees) at 13 MPH (11 knots; 5.7 m/s)
Visibility: 6 or more miles (10+ km)
Ceiling: ceiling and visibility are OK
Clouds: unknown
Weather: no significant weather observed at this time

METAR text: LTBA 221620Z 04014KT CAVOK 28/14 Q1015 NOSIG RMK RWY17L 03012KT RWY05 02013KT RWY23 05012KT
Conditions at: LTBA (ISTANBUL/ATATURK, TR) observed 1620 UTC 22 July 2019
Temperature: 28.0°C (82°F)
Dewpoint: 14.0°C (57°F) [RH = 42%]
Pressure (altimeter): 29.97 inches Hg (1015.0 mb)
Winds: from the NE (40 degrees) at 16 MPH (14 knots; 7.2 m/s)
Visibility: 6 or more miles (10+ km)
Ceiling: ceiling and visibility are OK
Clouds: unknown
Weather: no significant weather observed at this time

METAR text: LTBA 221550Z 03014KT CAVOK 29/12 Q1016 NOSIG RMK RWY17L 05013KT RWY05 04014KT RWY23 06016KT
Conditions at: LTBA (ISTANBUL/ATATURK, TR) observed 1550 UTC 22 July 2019
Temperature: 29.0°C (84°F)
Dewpoint: 12.0°C (54°F) [RH = 35%]
Pressure (altimeter): 30.00 inches Hg (1016.0 mb)
Winds: from the NNE (30 degrees) at 16 MPH (14 knots; 7.2 m/s)
Visibility: 6 or more miles (10+ km)
Ceiling: ceiling and visibility are OK
Clouds: unknown
Weather: no significant weather observed at this time

METAR text: LTBA 221520Z 04016KT CAVOK 29/12 Q1016 NOSIG RMK RWY17L 03012KT 360V060 RWY05 04016KT RWY23 05015KT
Conditions at: LTBA (ISTANBUL/ATATURK, TR) observed 1520 UTC 22 July 2019
Temperature: 29.0°C (84°F)
Dewpoint: 12.0°C (54°F) [RH = 35%]
Pressure (altimeter): 30.00 inches Hg (1016.0 mb)
Winds: from the NE (40 degrees) at 18 MPH (16 knots; 8.2 m/s)
Visibility: 6 or more miles (10+ km)
Ceiling: ceiling and visibility are OK
Clouds: unknown
Weather: no significant weather observed at this time

METAR text: LTBA 221450Z 05016KT CAVOK 30/12 Q1016 NOSIG RMK RWY17L 04015KT 010V080 RWY05 02018KT RWY23 06016KT 020V080
Conditions at: LTBA (ISTANBUL/ATATURK, TR) observed 1450 UTC 22 July 2019
Temperature: 30.0°C (86°F)
Dewpoint: 12.0°C (54°F) [RH = 33%]
Pressure (altimeter): 30.00 inches Hg (1016.0 mb)
Winds: from the NE (50 degrees) at 18 MPH (16 knots; 8.2 m/s)
Visibility: 6 or more miles (10+ km)
Ceiling: ceiling and visibility are OK
Clouds: unknown
Weather: no significant weather observed at this time

METAR text: LTBA 221420Z 03014KT CAVOK 31/13 Q1016 NOSIG RMK RWY17L 02015KT 360V070 RWY05 03018KT RWY23 04016KT
Conditions at: LTBA (ISTANBUL/ATATURK, TR) observed 1420 UTC 22 July 2019
Temperature: 31.0°C (88°F)
Dewpoint: 13.0°C (55°F) [RH = 33%]
Pressure (altimeter): 30.00 inches Hg (1016.0 mb)
Winds: from the NNE (30 degrees) at 16 MPH (14 knots; 7.2 m/s)
Visibility: 6 or more miles (10+ km)
Ceiling: ceiling and visibility are OK
Clouds: unknown
Weather: no significant weather observed at this time

METAR text: LTBA 221350Z 03015KT 360V060 CAVOK 31/14 Q1016 NOSIG RMK RWY17L 04015KT 010V070 RWY05 03016KT RWY23 06019KT
Conditions at: LTBA (ISTANBUL/ATATURK, TR) observed 1350 UTC 22 July 2019
Temperature: 31.0°C (88°F)
Dewpoint: 14.0°C (57°F) [RH = 36%]
Pressure (altimeter): 30.00 inches Hg (1016.0 mb)
Winds: from the NNE (30 degrees) at 17 MPH (15 knots; 7.7 m/s)
Visibility: 6 or more miles (10+ km)
Ceiling: ceiling and visibility are OK
Clouds: unknown
Weather: no significant weather observed at this time

METAR text: LTBA 221320Z 04012KT 360V070 CAVOK 31/15 Q1016 NOSIG RMK RWY17L 03013KT 010V070 RWY05 03017KT RWY23 06018KT
Conditions at: LTBA (ISTANBUL/ATATURK, TR) observed 1320 UTC 22 July 2019
Temperature: 31.0°C (88°F)
Dewpoint: 15.0°C (59°F) [RH = 38%]
Pressure (altimeter): 30.00 inches Hg (1016.0 mb)
Winds: from the NE (40 degrees) at 14 MPH (12 knots; 6.2 m/s)
Visibility: 6 or more miles (10+ km)
Ceiling: ceiling and visibility are OK
Clouds: unknown
Weather: no significant weather observed at this time

METAR text: LTBA 221250Z 03014KT 360V070 CAVOK 31/15 Q1016 NOSIG RMK RWY17L 02014KT 360V060 RWY05 04016KT RWY23 07016KT
Conditions at: LTBA (ISTANBUL/ATATURK, TR) observed 1250 UTC 22 July 2019
Temperature: 31.0°C (88°F)
Dewpoint: 15.0°C (59°F) [RH = 38%]
Pressure (altimeter): 30.00 inches Hg (1016.0 mb)
Winds: from the NNE (30 degrees) at 16 MPH (14 knots; 7.2 m/s)
Visibility: 6 or more miles (10+ km)
Ceiling: ceiling and visibility are OK
Clouds: unknown
Weather: no significant weather observed at this time

METAR text: LTBA 221220Z 02016KT 350V050 CAVOK 31/15 Q1017 NOSIG RMK RWY17L 02014KT RWY05 02015KT RWY23 06015KT 020V090
Conditions at: LTBA (ISTANBUL/ATATURK, TR) observed 1220 UTC 22 July 2019
Temperature: 31.0°C (88°F)
Dewpoint: 15.0°C (59°F) [RH = 38%]
Pressure (altimeter): 30.03 inches Hg (1017.0 mb)
Winds: from the NNE (20 degrees) at 18 MPH (16 knots; 8.2 m/s)
Visibility: 6 or more miles (10+ km)
Ceiling: ceiling and visibility are OK
Clouds: unknown
Weather: no significant weather observed at this time

METAR text: LTBA 221150Z 03015KT 360V060 CAVOK 31/16 Q1017 NOSIG RMK RWY17L 04015KT 360V080 RWY05 01016KT RWY23 05014KT 010V080
Conditions at: LTBA (ISTANBUL/ATATURK, TR) observed 1150 UTC 22 July 2019
Temperature: 31.0°C (88°F)
Dewpoint: 16.0°C (61°F) [RH = 40%]
Pressure (altimeter): 30.03 inches Hg (1017.0 mb)
Winds: from the NNE (30 degrees) at 17 MPH (15 knots; 7.7 m/s)
Visibility: 6 or more miles (10+ km)
Ceiling: ceiling and visibility are OK
Clouds: unknown
Weather: no significant weather observed at this time

METAR text: LTBA 221120Z 03017KT 010V070 CAVOK 31/16 Q1017 NOSIG RMK RWY17L 02015KT RWY05 01014KT 340V050 RWY23 04014KT 010V070
Conditions at: LTBA (ISTANBUL/ATATURK, TR) observed 1120 UTC 22 July 2019
Temperature: 31.0°C (88°F)
Dewpoint: 16.0°C (61°F) [RH = 40%]
Pressure (altimeter): 30.03 inches Hg (1017.0 mb)
Winds: from the NNE (30 degrees) at 20 MPH (17 knots; 8.7 m/s)
Visibility: 6 or more miles (10+ km)
Ceiling: ceiling and visibility are OK
Clouds: unknown
Weather: no significant weather observed at this time

METAR text: LTBA 221050Z 02015KT CAVOK 31/17 Q1017 NOSIG RMK RWY17L 02015KT 340V040 RWY05 01014KT 340V050 RWY23 04016KT 360V080
Conditions at: LTBA (ISTANBUL/ATATURK, TR) observed 1050 UTC 22 July 2019
Temperature: 31.0°C (88°F)
Dewpoint: 17.0°C (63°F) [RH = 43%]
Pressure (altimeter): 30.03 inches Hg (1017.0 mb)
Winds: from the NNE (20 degrees) at 17 MPH (15 knots; 7.7 m/s)
Visibility: 6 or more miles (10+ km)
Ceiling: ceiling and visibility are OK
Clouds: unknown
Weather: no significant weather observed at this time

METAR text: LTBA 221020Z 03014KT 360V070 CAVOK 30/17 Q1017 NOSIG RMK RWY17L 01016KT 350V050 RWY05 03017KT RWY23 06017KT 020V080
Conditions at: LTBA (ISTANBUL/ATATURK, TR) observed 1020 UTC 22 July 2019
Temperature: 30.0°C (86°F)
Dewpoint: 17.0°C (63°F) [RH = 46%]
Pressure (altimeter): 30.03 inches Hg (1017.0 mb)
Winds: from the NNE (30 degrees) at 16 MPH (14 knots; 7.2 m/s)
Visibility: 6 or more miles (10+ km)
Ceiling: ceiling and visibility are OK
Clouds: unknown
Weather: no significant weather observed at this time

METAR text: LTBA 220950Z 05015KT 010V080 CAVOK 30/15 Q1017 NOSIG RMK RWY17L 03014KT 360V070 RWY05 03014KT RWY23 05016KT 020V080
Conditions at: LTBA (ISTANBUL/ATATURK, TR) observed 0950 UTC 22 July 2019
Temperature: 30.0°C (86°F)
Dewpoint: 15.0°C (59°F) [RH = 40%]
Pressure (altimeter): 30.03 inches Hg (1017.0 mb)
Winds: from the NE (50 degrees) at 17 MPH (15 knots; 7.7 m/s)
Visibility: 6 or more miles (10+ km)
Ceiling: ceiling and visibility are OK
Clouds: unknown
Weather: no significant weather observed at this time

METAR text: LTBA 220920Z 03012KT 350V080 CAVOK 30/16 Q1017 NOSIG RMK RWY17L 04013KT RWY05 04012KT 360V060 RWY23 05014KT
Conditions at: LTBA (ISTANBUL/ATATURK, TR) observed 0920 UTC 22 July 2019
Temperature: 30.0°C (86°F)
Dewpoint: 16.0°C (61°F) [RH = 43%]
Pressure (altimeter): 30.03 inches Hg (1017.0 mb)
Winds: from the NNE (30 degrees) at 14 MPH (12 knots; 6.2 m/s)
Visibility: 6 or more miles (10+ km)
Ceiling: ceiling and visibility are OK
Clouds: unknown
Weather: no significant weather observed at this time

METAR text: LTBA 220850Z 05013KT 020V090 CAVOK 30/17 Q1017 NOSIG RMK RWY17L 04012KT 010V070 RWY05 04011KT 350V070 RWY23 07011KT 020V100
Conditions at: LTBA (ISTANBUL/ATATURK, TR) observed 0850 UTC 22 July 2019
Temperature: 30.0°C (86°F)
Dewpoint: 17.0°C (63°F) [RH = 46%]
Pressure (altimeter): 30.03 inches Hg (1017.0 mb)
Winds: from the NE (50 degrees) at 15 MPH (13 knots; 6.7 m/s)
Visibility: 6 or more miles (10+ km)
Ceiling: ceiling and visibility are OK
Clouds: unknown
Weather: no significant weather observed at this time

METAR text: LTBA 220820Z 04011KT 360V070 CAVOK 30/17 Q1017 NOSIG RMK RWY17L 04012KT 010V080 RWY05 03011KT 340V070 RWY23 06012KT 010V100
Conditions at: LTBA (ISTANBUL/ATATURK, TR) observed 0820 UTC 22 July 2019
Temperature: 30.0°C (86°F)
Dewpoint: 17.0°C (63°F) [RH = 46%]
Pressure (altimeter): 30.03 inches Hg (1017.0 mb)
Winds: from the NE (40 degrees) at 13 MPH (11 knots; 5.7 m/s)
Visibility: 6 or more miles (10+ km)
Ceiling: ceiling and visibility are OK
Clouds: unknown
Weather: no significant weather observed at this time

METAR text: LTBA 220750Z 04009KT 010V070 CAVOK 28/17 Q1017 NOSIG RMK RWY17L 05010KT 350V100 RWY05 04010KT 010V070 RWY23 03011KT 010V070
Conditions at: LTBA (ISTANBUL/ATATURK, TR) observed 0750 UTC 22 July 2019
Temperature: 28.0°C (82°F)
Dewpoint: 17.0°C (63°F) [RH = 51%]
Pressure (altimeter): 30.03 inches Hg (1017.0 mb)
Winds: from the NE (40 degrees) at 10 MPH (9 knots; 4.6 m/s)
Visibility: 6 or more miles (10+ km)
Ceiling: ceiling and visibility are OK
Clouds: unknown
Weather: no significant weather observed at this time

METAR text: LTBA 220720Z 06010KT 020V080 CAVOK 28/17 Q1017 NOSIG RMK RWY17L 05010KT 020V080 RWY05 03010KT 360V080 RWY23 07010KT 040V110
Conditions at: LTBA (ISTANBUL/ATATURK, TR) observed 0720 UTC 22 July 2019
Temperature: 28.0°C (82°F)
Dewpoint: 17.0°C (63°F) [RH = 51%]
Pressure (altimeter): 30.03 inches Hg (1017.0 mb)
Winds: from the ENE (60 degrees) at 12 MPH (10 knots; 5.1 m/s)
Visibility: 6 or more miles (10+ km)
Ceiling: ceiling and visibility are OK
Clouds: unknown
Weather: no significant weather observed at this time

METAR text: LTBA 220650Z 05008KT 020V090 CAVOK 27/18 Q1017 NOSIG RMK RWY17L 05010KT 020V110 RWY05 03010KT 010V070 RWY23 05010KT 010V070
Conditions at: LTBA (ISTANBUL/ATATURK, TR) observed 0650 UTC 22 July 2019
Temperature: 27.0°C (81°F)
Dewpoint: 18.0°C (64°F) [RH = 58%]
Pressure (altimeter): 30.03 inches Hg (1017.0 mb)
Winds: from the NE (50 degrees) at 9 MPH (8 knots; 4.1 m/s)
Visibility: 6 or more miles (10+ km)
Ceiling: ceiling and visibility are OK
Clouds: unknown
Weather: no significant weather observed at this time

METAR text: LTBA 220620Z 02009KT CAVOK 26/19 Q1018 NOSIG RMK RWY17L 04008KT 010V080 RWY05 02007KT 340V090 RWY23 07009KT 030V100
Conditions at: LTBA (ISTANBUL/ATATURK, TR) observed 0620 UTC 22 July 2019
Temperature: 26.0°C (79°F)
Dewpoint: 19.0°C (66°F) [RH = 65%]
Pressure (altimeter): 30.06 inches Hg (1018.0 mb)
Winds: from the NNE (20 degrees) at 10 MPH (9 knots; 4.6 m/s)
Visibility: 6 or more miles (10+ km)
Ceiling: ceiling and visibility are OK
Clouds: unknown
Weather: no significant weather observed at this time

METAR text: LTBA 220550Z 04007KT 010V070 CAVOK 25/20 Q1018 NOSIG RMK RWY17L 03010KT 360V070 RWY05 02008KT 360V060 RWY23 07009KT 030V100
Conditions at: LTBA (ISTANBUL/ATATURK, TR) observed 0550 UTC 22 July 2019
Temperature: 25.0°C (77°F)
Dewpoint: 20.0°C (68°F) [RH = 74%]
Pressure (altimeter): 30.06 inches Hg (1018.0 mb)
Winds: from the NE (40 degrees) at 8 MPH (7 knots; 3.6 m/s)
Visibility: 6 or more miles (10+ km)
Ceiling: ceiling and visibility are OK
Clouds: unknown
Weather: no significant weather observed at this time

METAR text: LTBA 220520Z 03008KT 350V070 9999 SCT025 25/20 Q1018 NOSIG RMK RWY17L 03008KT 010V080 RWY05 04008KT RWY23 05009KT 020V080
Conditions at: LTBA (ISTANBUL/ATATURK, TR) observed 0520 UTC 22 July 2019
Temperature: 25.0°C (77°F)
Dewpoint: 20.0°C (68°F) [RH = 74%]
Pressure (altimeter): 30.06 inches Hg (1018.0 mb)
Winds: from the NNE (30 degrees) at 9 MPH (8 knots; 4.1 m/s)
Visibility: 6 or more miles (10+ km)
Ceiling: at least 12,000 feet AGL
Clouds: scattered clouds at 2500 feet AGL
Weather: no significant weather observed at this time

METAR text: LTBA 220450Z 02006KT 350V050 9999 SCT028 24/20 Q1018 NOSIG RMK RWY17L 04007KT 020V080 RWY05 04005KT 350V080 RWY23 07006KT 030V100
Conditions at: LTBA (ISTANBUL/ATATURK, TR) observed 0450 UTC 22 July 2019
Temperature: 24.0°C (75°F)
Dewpoint: 20.0°C (68°F) [RH = 78%]
Pressure (altimeter): 30.06 inches Hg (1018.0 mb)
Winds: from the NNE (20 degrees) at 7 MPH (6 knots; 3.1 m/s)
Visibility: 6 or more miles (10+ km)
Ceiling: at least 12,000 feet AGL
Clouds: scattered clouds at 2800 feet AGL
Weather: no significant weather observed at this time

METAR text: LTBA 220420Z 03004KT 010V070 9999 FEW030 24/20 Q1018 NOSIG RMK RWY17L 03005KT 350V090 RWY05 05003KT RWY23 VRB01KT
Conditions at: LTBA (ISTANBUL/ATATURK, TR) observed 0420 UTC 22 July 2019
Temperature: 24.0°C (75°F)
Dewpoint: 20.0°C (68°F) [RH = 78%]
Pressure (altimeter): 30.06 inches Hg (1018.0 mb)
Winds: from the NNE (30 degrees) at 5 MPH (4 knots; 2.1 m/s)
Visibility: 6 or more miles (10+ km)
Ceiling: at least 12,000 feet AGL
Clouds: few clouds at 3000 feet AGL
Weather: no significant weather observed at this time

METAR text: LTBA 220350Z 06004KT 9999 FEW035 23/20 Q1018 NOSIG RMK RWY17L 05004KT 020V090 RWY05 06003KT RWY23 VRB02KT
Conditions at: LTBA (ISTANBUL/ATATURK, TR) observed 0350 UTC 22 July 2019
Temperature: 23.0°C (73°F)
Dewpoint: 20.0°C (68°F) [RH = 83%]
Pressure (altimeter): 30.06 inches Hg (1018.0 mb)
Winds: from the ENE (60 degrees) at 5 MPH (4 knots; 2.1 m/s)
Visibility: 6 or more miles (10+ km)
Ceiling: at least 12,000 feet AGL
Clouds: few clouds at 3500 feet AGL
Weather: no significant weather observed at this time

METAR text: LTBA 220320Z 06004KT CAVOK 23/20 Q1018 NOSIG RMK RWY17L 05005KT 020V080 RWY05 06004KT RWY23 08003KT
Conditions at: LTBA (ISTANBUL/ATATURK, TR) observed 0320 UTC 22 July 2019
Temperature: 23.0°C (73°F)
Dewpoint: 20.0°C (68°F) [RH = 83%]
Pressure (altimeter): 30.06 inches Hg (1018.0 mb)
Winds: from the ENE (60 degrees) at 5 MPH (4 knots; 2.1 m/s)
Visibility: 6 or more miles (10+ km)
Ceiling: ceiling and visibility are OK
Clouds: unknown
Weather: no significant weather observed at this time

METAR text: LTBA 220250Z 04006KT CAVOK 22/20 Q1018 NOSIG RMK RWY17L 05007KT RWY05 03006KT RWY23 04006KT
Conditions at: LTBA (ISTANBUL/ATATURK, TR) observed 0250 UTC 22 July 2019
Temperature: 22.0°C (72°F)
Dewpoint: 20.0°C (68°F) [RH = 88%]
Pressure (altimeter): 30.06 inches Hg (1018.0 mb)
Winds: from the NE (40 degrees) at 7 MPH (6 knots; 3.1 m/s)
Visibility: 6 or more miles (10+ km)
Ceiling: ceiling and visibility are OK
Clouds: unknown
Weather: no significant weather observed at this time

METAR text: LTBA 220220Z 05006KT CAVOK 23/19 Q1018 NOSIG RMK RWY17L 05006KT RWY05 04005KT RWY23 05005KT
Conditions at: LTBA (ISTANBUL/ATATURK, TR) observed 0220 UTC 22 July 2019
Temperature: 23.0°C (73°F)
Dewpoint: 19.0°C (66°F) [RH = 78%]
Pressure (altimeter): 30.06 inches Hg (1018.0 mb)
Winds: from the NE (50 degrees) at 7 MPH (6 knots; 3.1 m/s)
Visibility: 6 or more miles (10+ km)
Ceiling: ceiling and visibility are OK
Clouds: unknown
Weather: no significant weather observed at this time

METAR text: LTBA 220150Z 04005KT CAVOK 23/19 Q1018 NOSIG RMK RWY17L 04006KT RWY05 02005KT RWY23 03005KT
Conditions at: LTBA (ISTANBUL/ATATURK, TR) observed 0150 UTC 22 July 2019
Temperature: 23.0°C (73°F)
Dewpoint: 19.0°C (66°F) [RH = 78%]
Pressure (altimeter): 30.06 inches Hg (1018.0 mb)
Winds: from the NE (40 degrees) at 6 MPH (5 knots; 2.6 m/s)
Visibility: 6 or more miles (10+ km)
Ceiling: ceiling and visibility are OK
Clouds: unknown
Weather: no significant weather observed at this time

METAR text: LTBA 220120Z 05007KT CAVOK 23/19 Q1018 NOSIG RMK RWY17L 03006KT RWY05 05006KT RWY23 07006KT
Conditions at: LTBA (ISTANBUL/ATATURK, TR) observed 0120 UTC 22 July 2019
Temperature: 23.0°C (73°F)
Dewpoint: 19.0°C (66°F) [RH = 78%]
Pressure (altimeter): 30.06 inches Hg (1018.0 mb)
Winds: from the NE (50 degrees) at 8 MPH (7 knots; 3.6 m/s)
Visibility: 6 or more miles (10+ km)
Ceiling: ceiling and visibility are OK
Clouds: unknown
Weather: no significant weather observed at this time

METAR text: LTBA 220050Z 02006KT CAVOK 23/19 Q1018 NOSIG RMK RWY17L 02008KT RWY05 02006KT RWY23 05006KT
Conditions at: LTBA (ISTANBUL/ATATURK, TR) observed 0050 UTC 22 July 2019
Temperature: 23.0°C (73°F)
Dewpoint: 19.0°C (66°F) [RH = 78%]
Pressure (altimeter): 30.06 inches Hg (1018.0 mb)
Winds: from the NNE (20 degrees) at 7 MPH (6 knots; 3.1 m/s)
Visibility: 6 or more miles (10+ km)
Ceiling: ceiling and visibility are OK
Clouds: unknown
Weather: no significant weather observed at this time

METAR text: LTBA 220020Z 02006KT CAVOK 23/19 Q1018 NOSIG RMK RWY17L 02006KT RWY05 01005KT RWY23 03006KT
Conditions at: LTBA (ISTANBUL/ATATURK, TR) observed 0020 UTC 22 July 2019
Temperature: 23.0°C (73°F)
Dewpoint: 19.0°C (66°F) [RH = 78%]
Pressure (altimeter): 30.06 inches Hg (1018.0 mb)
Winds: from the NNE (20 degrees) at 7 MPH (6 knots; 3.1 m/s)
Visibility: 6 or more miles (10+ km)
Ceiling: ceiling and visibility are OK
Clouds: unknown
Weather: no significant weather observed at this time

METAR text: LTBA 212350Z 04005KT 030V090 CAVOK 23/19 Q1018 NOSIG RMK RWY17L 04005KT RWY05 03005KT RWY23 05005KT
Conditions at: LTBA (ISTANBUL/ATATURK, TR) observed 2350 UTC 21 July 2019
Temperature: 23.0°C (73°F)
Dewpoint: 19.0°C (66°F) [RH = 78%]
Pressure (altimeter): 30.06 inches Hg (1018.0 mb)
Winds: from the NE (40 degrees) at 6 MPH (5 knots; 2.6 m/s)
Visibility: 6 or more miles (10+ km)
Ceiling: ceiling and visibility are OK
Clouds: unknown
Weather: no significant weather observed at this time

METAR text: LTBA 212320Z 08004KT CAVOK 23/19 Q1018 NOSIG RMK RWY17L 09003KT 060V130 RWY05 08003KT RWY23 08004KT
Conditions at: LTBA (ISTANBUL/ATATURK, TR) observed 2320 UTC 21 July 2019
Temperature: 23.0°C (73°F)
Dewpoint: 19.0°C (66°F) [RH = 78%]
Pressure (altimeter): 30.06 inches Hg (1018.0 mb)
Winds: from the E (80 degrees) at 5 MPH (4 knots; 2.1 m/s)
Visibility: 6 or more miles (10+ km)
Ceiling: ceiling and visibility are OK
Clouds: unknown
Weather: no significant weather observed at this time

METAR text: LTBA 212250Z 09003KT CAVOK 23/19 Q1018 NOSIG RMK RWY17L 05004KT 020V080 RWY05 08004KT RWY23 09003KT
Conditions at: LTBA (ISTANBUL/ATATURK, TR) observed 2250 UTC 21 July 2019
Temperature: 23.0°C (73°F)
Dewpoint: 19.0°C (66°F) [RH = 78%]
Pressure (altimeter): 30.06 inches Hg (1018.0 mb)
Winds: from the E (90 degrees) at 3 MPH (3 knots; 1.5 m/s)
Visibility: 6 or more miles (10+ km)
Ceiling: ceiling and visibility are OK
Clouds: unknown
Weather: no significant weather observed at this time

METAR text: LTBA 212220Z 11004KT CAVOK 23/19 Q1018 NOSIG RMK RWY17L 08003KT 040V120 RWY05 09002KT RWY23 11003KT 070V170
Conditions at: LTBA (ISTANBUL/ATATURK, TR) observed 2220 UTC 21 July 2019
Temperature: 23.0°C (73°F)
Dewpoint: 19.0°C (66°F) [RH = 78%]
Pressure (altimeter): 30.06 inches Hg (1018.0 mb)
Winds: from the ESE (110 degrees) at 5 MPH (4 knots; 2.1 m/s)
Visibility: 6 or more miles (10+ km)
Ceiling: ceiling and visibility are OK
Clouds: unknown
Weather: no significant weather observed at this time

METAR text: LTBA 212150Z 08004KT 050V120 CAVOK 24/19 Q1018 NOSIG RMK RWY17L 09003KT 050V150 RWY05 06004KT RWY23 12003KT 060V170
Conditions at: LTBA (ISTANBUL/ATATURK, TR) observed 2150 UTC 21 July 2019
Temperature: 24.0°C (75°F)
Dewpoint: 19.0°C (66°F) [RH = 74%]
Pressure (altimeter): 30.06 inches Hg (1018.0 mb)
Winds: from the E (80 degrees) at 5 MPH (4 knots; 2.1 m/s)
Visibility: 6 or more miles (10+ km)
Ceiling: ceiling and visibility are OK
Clouds: unknown
Weather: no significant weather observed at this time

Forecast for: LTBA (ISTANBUL/ATATURK, TR)
Text: TAF LTBA 230440Z 2306/2412 02005KT CAVOK
Forecast period: 0600 UTC 23 July 2019 to 1200 UTC 24 July 2019
Forecast type: FROM: standard forecast or significant change
Winds: from the NNE (20 degrees) at 6 MPH (5 knots; 2.6 m/s)
Visibility: 6 or more miles 10+ km)
Ceiling: unknown
Clouds: missing
Weather: NSW  (no significant weather)
Text: BECMG 2306/2309 02015KT
Forecast period: 0600 to 1900 UTC 23 July 2019
Forecast type: BECOMING: Conditions expected to become as follows by 0900 UTC 23 July 2019
Winds: from the NNE (20 degrees) at 17 MPH (15 knots; 7.7 m/s)
Visibility: 6 or more miles 10+ km)
Ceiling: unknown
Clouds: missing
Weather: NSW  (no significant weather)
Text: BECMG 2319/2322 02005KT SCT033
Forecast period: 1900 to 2200 UTC 23 July 2019
Forecast type: BECOMING: Conditions expected to become as follows by 2200 UTC 23 July 2019
Winds: from the NNE (20 degrees) at 6 MPH (5 knots; 2.6 m/s)
Visibility: 6 or more miles 10+ km)
Ceiling: at least 12,000 feet AGL
Clouds: scattered clouds at 3300 feet AGL
Weather: NSW  (no significant weather)
Text: BECMG 2322/2324 FEW012 BKN027
Forecast period: 2200 UTC 23 July 2019 to 0200 UTC 24 July 2019
Forecast type: BECOMING: Conditions expected to become as follows by 0000 UTC 24 July 2019
Winds: from the NNE (20 degrees) at 6 MPH (5 knots; 2.6 m/s)
Visibility: 6 or more miles 10+ km)
Ceiling: 2700 feet AGL
Clouds: few clouds at 1200 feet AGL
broken clouds at 2700 feet AGL
Weather: NSW  (no significant weather)
Text: BECMG 2402/2405 02015KT SCT033 BKN100
Forecast period: 0200 to 1200 UTC 24 July 2019
Forecast type: BECOMING: Conditions expected to become as follows by 0500 UTC 24 July 2019
Winds: from the NNE (20 degrees) at 17 MPH (15 knots; 7.7 m/s)
Visibility: 6 or more miles 10+ km)
Ceiling: 10000 feet AGL
Clouds: scattered clouds at 3300 feet AGL
broken clouds at 10000 feet AGL
Weather: NSW  (no significant weather)
Text: TEMPO 2404/2408 -TSRA FEW017CB BKN032
Forecast period: 0400 to 0800 UTC 24 July 2019
Forecast type: TEMPORARY: The following changes expected for less than half the time period
Visibility: missing
Ceiling: 3200 feet AGL
Clouds: few clouds at 1700 feet AGL
broken clouds at 3200 feet AGL
Weather: -TSRA  (light rain associated with thunderstorm(s))